Aspinwall, Pennsylvania
Current Conditions -  °F | °C
As of 1:53 PM on Thursday 23 Oct 2014 (Local Time) from KAGC Reporting Station
Few Clouds Few Clouds  
Wind Chill: 15°   Ceiling: Unl
Heat Index: 15°   Visibility: 10mi
Dew Point:   Wind: 13mph
Humidity: 48%   Direction: 320°NW
Pressure: 30.06"   Gusts: 23mph
Location:  40.5049°N, 79.9132°W
Report Text: KAGC 231753Z 32011G20KT 10SM FEW039 15/04 A3006 RMK AO2 SLP185 T01500039 10156 20083 58019
Loading
Personal Weather Stations






























Interactive Weather Map
Tropical Storm Tracking
New forecast layout! Learn more

10-Day Weather Forecast

Advertisements
Track Severe Weather on mobile